sensor_id;sensor_type;location;lat;lon;timestamp;P1;durP1;ratioP1;P2;durP2;ratioP2
5499;SDS011;2772;42.700;23.304;2024-03-17T00:01:36;43.53;;;19.80;;
5499;SDS011;2772;42.700;23.304;2024-03-17T00:04:02;31.93;;;17.37;;
5499;SDS011;2772;42.700;23.304;2024-03-17T00:06:30;41.73;;;17.90;;
5499;SDS011;2772;42.700;23.304;2024-03-17T00:08:56;35.03;;;18.20;;
5499;SDS011;2772;42.700;23.304;2024-03-17T00:11:26;33.60;;;18.10;;
5499;SDS011;2772;42.700;23.304;2024-03-17T00:13:51;36.10;;;19.20;;
5499;SDS011;2772;42.700;23.304;2024-03-17T00:16:18;30.80;;;18.07;;
5499;SDS011;2772;42.700;23.304;2024-03-17T00:18:46;38.13;;;19.90;;
5499;SDS011;2772;42.700;23.304;2024-03-17T00:21:13;30.07;;;17.20;;
5499;SDS011;2772;42.700;23.304;2024-03-17T00:23:40;32.83;;;18.63;;
5499;SDS011;2772;42.700;23.304;2024-03-17T00:26:07;33.47;;;17.80;;
5499;SDS011;2772;42.700;23.304;2024-03-17T00:28:33;32.00;;;19.63;;
5499;SDS011;2772;42.700;23.304;2024-03-17T00:30:59;36.73;;;17.90;;
5499;SDS011;2772;42.700;23.304;2024-03-17T00:33:28;35.63;;;18.70;;
5499;SDS011;2772;42.700;23.304;2024-03-17T00:35:54;31.63;;;17.77;;
5499;SDS011;2772;42.700;23.304;2024-03-17T00:38:20;32.97;;;18.83;;
5499;SDS011;2772;42.700;23.304;2024-03-17T00:40:48;36.33;;;19.10;;
5499;SDS011;2772;42.700;23.304;2024-03-17T00:43:15;35.47;;;18.63;;
5499;SDS011;2772;42.700;23.304;2024-03-17T00:45:42;42.20;;;17.60;;
5499;SDS011;2772;42.700;23.304;2024-03-17T00:48:07;30.33;;;17.70;;
5499;SDS011;2772;42.700;23.304;2024-03-17T00:50:34;34.40;;;17.87;;
5499;SDS011;2772;42.700;23.304;2024-03-17T00:53:00;32.33;;;15.90;;
5499;SDS011;2772;42.700;23.304;2024-03-17T00:55:28;32.10;;;17.33;;
5499;SDS011;2772;42.700;23.304;2024-03-17T00:57:55;27.40;;;16.93;;
5499;SDS011;2772;42.700;23.304;2024-03-17T01:00:22;27.63;;;16.17;;
5499;SDS011;2772;42.700;23.304;2024-03-17T01:02:48;29.87;;;16.30;;
5499;SDS011;2772;42.700;23.304;2024-03-17T01:05:14;31.50;;;16.67;;
5499;SDS011;2772;42.700;23.304;2024-03-17T01:07:40;27.63;;;15.60;;
5499;SDS011;2772;42.700;23.304;2024-03-17T01:10:10;24.13;;;14.77;;
5499;SDS011;2772;42.700;23.304;2024-03-17T01:12:36;26.10;;;16.27;;
5499;SDS011;2772;42.700;23.304;2024-03-17T01:15:05;23.80;;;15.10;;
5499;SDS011;2772;42.700;23.304;2024-03-17T01:17:31;26.50;;;14.97;;
5499;SDS011;2772;42.700;23.304;2024-03-17T01:19:58;24.43;;;14.90;;
5499;SDS011;2772;42.700;23.304;2024-03-17T01:22:24;24.20;;;14.53;;
5499;SDS011;2772;42.700;23.304;2024-03-17T01:24:50;26.37;;;15.40;;
5499;SDS011;2772;42.700;23.304;2024-03-17T01:27:16;26.63;;;15.77;;
5499;SDS011;2772;42.700;23.304;2024-03-17T01:29:43;28.80;;;16.17;;
5499;SDS011;2772;42.700;23.304;2024-03-17T01:32:10;28.33;;;16.13;;
5499;SDS011;2772;42.700;23.304;2024-03-17T01:34:37;33.83;;;16.37;;
5499;SDS011;2772;42.700;23.304;2024-03-17T01:37:05;28.13;;;16.30;;
5499;SDS011;2772;42.700;23.304;2024-03-17T01:39:33;29.37;;;15.57;;
5499;SDS011;2772;42.700;23.304;2024-03-17T01:41:58;28.00;;;16.07;;
5499;SDS011;2772;42.700;23.304;2024-03-17T01:44:26;27.50;;;15.60;;
5499;SDS011;2772;42.700;23.304;2024-03-17T01:46:53;25.87;;;15.83;;
5499;SDS011;2772;42.700;23.304;2024-03-17T01:49:22;29.80;;;16.17;;
5499;SDS011;2772;42.700;23.304;2024-03-17T01:51:49;24.67;;;14.77;;
5499;SDS011;2772;42.700;23.304;2024-03-17T01:54:17;26.10;;;15.10;;
5499;SDS011;2772;42.700;23.304;2024-03-17T01:56:43;25.37;;;14.67;;
5499;SDS011;2772;42.700;23.304;2024-03-17T01:59:10;27.27;;;15.07;;
5499;SDS011;2772;42.700;23.304;2024-03-17T02:01:36;27.40;;;15.63;;
5499;SDS011;2772;42.700;23.304;2024-03-17T02:04:03;29.47;;;15.63;;
5499;SDS011;2772;42.700;23.304;2024-03-17T02:06:31;29.10;;;14.87;;
5499;SDS011;2772;42.700;23.304;2024-03-17T02:08:58;29.60;;;15.23;;
5499;SDS011;2772;42.700;23.304;2024-03-17T02:11:28;30.97;;;17.17;;
5499;SDS011;2772;42.700;23.304;2024-03-17T02:13:57;29.73;;;16.47;;
5499;SDS011;2772;42.700;23.304;2024-03-17T02:16:26;27.17;;;14.80;;
5499;SDS011;2772;42.700;23.304;2024-03-17T02:18:53;23.43;;;14.30;;
5499;SDS011;2772;42.700;23.304;2024-03-17T02:21:21;24.27;;;14.80;;
5499;SDS011;2772;42.700;23.304;2024-03-17T02:23:49;29.43;;;15.60;;
5499;SDS011;2772;42.700;23.304;2024-03-17T02:26:16;30.33;;;15.07;;
5499;SDS011;2772;42.700;23.304;2024-03-17T02:28:45;29.50;;;15.23;;
5499;SDS011;2772;42.700;23.304;2024-03-17T02:31:14;25.90;;;15.07;;
5499;SDS011;2772;42.700;23.304;2024-03-17T02:33:41;24.40;;;14.03;;
5499;SDS011;2772;42.700;23.304;2024-03-17T02:36:09;28.53;;;15.17;;
5499;SDS011;2772;42.700;23.304;2024-03-17T02:38:38;30.33;;;15.03;;
5499;SDS011;2772;42.700;23.304;2024-03-17T02:41:25;28.10;;;14.40;;
5499;SDS011;2772;42.700;23.304;2024-03-17T02:43:52;26.20;;;14.40;;
5499;SDS011;2772;42.700;23.304;2024-03-17T02:46:19;30.50;;;15.57;;
5499;SDS011;2772;42.700;23.304;2024-03-17T02:48:47;24.47;;;14.10;;
5499;SDS011;2772;42.700;23.304;2024-03-17T02:51:16;25.13;;;14.77;;
5499;SDS011;2772;42.700;23.304;2024-03-17T02:53:45;24.67;;;14.40;;
5499;SDS011;2772;42.700;23.304;2024-03-17T02:56:15;27.63;;;15.33;;
5499;SDS011;2772;42.700;23.304;2024-03-17T02:58:45;26.97;;;15.87;;
5499;SDS011;2772;42.700;23.304;2024-03-17T03:01:12;29.93;;;15.87;;
5499;SDS011;2772;42.700;23.304;2024-03-17T03:03:40;27.13;;;17.20;;
5499;SDS011;2772;42.700;23.304;2024-03-17T03:06:06;33.88;;;18.13;;
5499;SDS011;2772;42.700;23.304;2024-03-17T03:08:36;26.93;;;16.80;;
5499;SDS011;2772;42.700;23.304;2024-03-17T03:11:05;30.30;;;15.90;;
5499;SDS011;2772;42.700;23.304;2024-03-17T03:13:35;33.10;;;17.63;;
5499;SDS011;2772;42.700;23.304;2024-03-17T03:16:04;35.00;;;17.30;;
5499;SDS011;2772;42.700;23.304;2024-03-17T03:18:31;32.77;;;16.77;;
5499;SDS011;2772;42.700;23.304;2024-03-17T03:20:58;28.20;;;15.97;;
5499;SDS011;2772;42.700;23.304;2024-03-17T03:23:25;31.30;;;16.70;;
5499;SDS011;2772;42.700;23.304;2024-03-17T03:25:54;29.57;;;17.17;;
5499;SDS011;2772;42.700;23.304;2024-03-17T03:28:21;27.80;;;16.40;;
5499;SDS011;2772;42.700;23.304;2024-03-17T03:30:48;40.63;;;18.07;;
5499;SDS011;2772;42.700;23.304;2024-03-17T03:33:16;27.60;;;15.10;;
5499;SDS011;2772;42.700;23.304;2024-03-17T03:35:43;30.73;;;16.70;;
5499;SDS011;2772;42.700;23.304;2024-03-17T03:38:10;31.00;;;16.40;;
5499;SDS011;2772;42.700;23.304;2024-03-17T03:40:38;26.70;;;15.20;;
5499;SDS011;2772;42.700;23.304;2024-03-17T03:43:05;31.83;;;17.10;;
5499;SDS011;2772;42.700;23.304;2024-03-17T03:45:33;30.33;;;17.03;;
5499;SDS011;2772;42.700;23.304;2024-03-17T03:48:00;30.90;;;15.70;;
5499;SDS011;2772;42.700;23.304;2024-03-17T03:50:29;25.73;;;16.40;;
5499;SDS011;2772;42.700;23.304;2024-03-17T03:52:56;32.20;;;17.57;;
5499;SDS011;2772;42.700;23.304;2024-03-17T03:55:23;33.90;;;16.70;;
5499;SDS011;2772;42.700;23.304;2024-03-17T03:57:50;26.07;;;15.70;;
5499;SDS011;2772;42.700;23.304;2024-03-17T04:00:17;30.30;;;17.60;;
5499;SDS011;2772;42.700;23.304;2024-03-17T04:02:47;26.53;;;16.77;;
5499;SDS011;2772;42.700;23.304;2024-03-17T04:05:14;33.97;;;18.03;;
5499;SDS011;2772;42.700;23.304;2024-03-17T04:07:42;27.60;;;16.07;;
5499;SDS011;2772;42.700;23.304;2024-03-17T04:10:11;32.53;;;16.40;;
5499;SDS011;2772;42.700;23.304;2024-03-17T04:12:38;29.10;;;16.47;;
5499;SDS011;2772;42.700;23.304;2024-03-17T04:15:05;24.70;;;14.93;;
5499;SDS011;2772;42.700;23.304;2024-03-17T04:17:33;28.80;;;17.23;;
5499;SDS011;2772;42.700;23.304;2024-03-17T04:20:00;28.57;;;17.03;;
5499;SDS011;2772;42.700;23.304;2024-03-17T04:22:26;28.83;;;17.30;;
5499;SDS011;2772;42.700;23.304;2024-03-17T04:24:54;27.53;;;15.80;;
5499;SDS011;2772;42.700;23.304;2024-03-17T04:27:21;36.90;;;17.90;;
5499;SDS011;2772;42.700;23.304;2024-03-17T04:29:48;31.27;;;17.60;;
5499;SDS011;2772;42.700;23.304;2024-03-17T04:32:15;42.63;;;18.90;;
5499;SDS011;2772;42.700;23.304;2024-03-17T04:34:42;37.50;;;17.30;;
5499;SDS011;2772;42.700;23.304;2024-03-17T04:37:09;33.60;;;18.67;;
5499;SDS011;2772;42.700;23.304;2024-03-17T04:39:37;50.90;;;20.33;;
5499;SDS011;2772;42.700;23.304;2024-03-17T04:42:09;47.60;;;20.57;;
5499;SDS011;2772;42.700;23.304;2024-03-17T04:44:36;34.37;;;18.90;;
5499;SDS011;2772;42.700;23.304;2024-03-17T04:47:03;34.07;;;18.33;;
5499;SDS011;2772;42.700;23.304;2024-03-17T04:49:32;34.27;;;17.57;;
5499;SDS011;2772;42.700;23.304;2024-03-17T04:51:58;45.47;;;21.03;;
5499;SDS011;2772;42.700;23.304;2024-03-17T04:54:25;40.73;;;20.47;;
5499;SDS011;2772;42.700;23.304;2024-03-17T04:56:52;37.03;;;17.93;;
5499;SDS011;2772;42.700;23.304;2024-03-17T04:59:20;41.50;;;18.43;;
5499;SDS011;2772;42.700;23.304;2024-03-17T05:01:46;37.33;;;20.85;;
5499;SDS011;2772;42.700;23.304;2024-03-17T05:04:13;30.73;;;18.10;;
5499;SDS011;2772;42.700;23.304;2024-03-17T05:06:40;37.23;;;18.20;;
5499;SDS011;2772;42.700;23.304;2024-03-17T05:09:11;35.13;;;18.17;;
5499;SDS011;2772;42.700;23.304;2024-03-17T05:11:39;32.63;;;18.30;;
5499;SDS011;2772;42.700;23.304;2024-03-17T05:14:05;51.27;;;18.60;;
5499;SDS011;2772;42.700;23.304;2024-03-17T05:16:33;40.70;;;18.50;;
5499;SDS011;2772;42.700;23.304;2024-03-17T05:19:00;34.20;;;17.40;;
5499;SDS011;2772;42.700;23.304;2024-03-17T05:21:28;33.17;;;17.63;;
5499;SDS011;2772;42.700;23.304;2024-03-17T05:23:55;35.17;;;18.43;;
5499;SDS011;2772;42.700;23.304;2024-03-17T05:26:23;39.63;;;18.60;;
5499;SDS011;2772;42.700;23.304;2024-03-17T05:28:50;35.60;;;17.43;;
5499;SDS011;2772;42.700;23.304;2024-03-17T05:31:17;31.27;;;17.93;;
5499;SDS011;2772;42.700;23.304;2024-03-17T05:33:47;38.07;;;18.30;;
5499;SDS011;2772;42.700;23.304;2024-03-17T05:36:15;39.50;;;19.30;;
5499;SDS011;2772;42.700;23.304;2024-03-17T05:38:45;32.33;;;18.77;;
5499;SDS011;2772;42.700;23.304;2024-03-17T05:41:12;29.63;;;16.97;;
5499;SDS011;2772;42.700;23.304;2024-03-17T05:43:39;35.83;;;17.90;;
5499;SDS011;2772;42.700;23.304;2024-03-17T05:46:06;34.67;;;18.03;;
5499;SDS011;2772;42.700;23.304;2024-03-17T05:48:34;34.30;;;18.17;;
5499;SDS011;2772;42.700;23.304;2024-03-17T05:51:04;31.30;;;17.20;;
5499;SDS011;2772;42.700;23.304;2024-03-17T05:53:31;30.30;;;17.93;;
5499;SDS011;2772;42.700;23.304;2024-03-17T05:55:58;32.27;;;17.10;;
5499;SDS011;2772;42.700;23.304;2024-03-17T05:58:25;39.20;;;16.23;;
5499;SDS011;2772;42.700;23.304;2024-03-17T06:00:51;29.53;;;15.50;;
5499;SDS011;2772;42.700;23.304;2024-03-17T06:03:18;29.93;;;17.43;;
5499;SDS011;2772;42.700;23.304;2024-03-17T06:05:46;37.30;;;17.20;;
5499;SDS011;2772;42.700;23.304;2024-03-17T06:08:15;34.57;;;16.87;;
5499;SDS011;2772;42.700;23.304;2024-03-17T06:10:42;33.13;;;16.60;;
5499;SDS011;2772;42.700;23.304;2024-03-17T06:13:11;34.47;;;18.10;;
5499;SDS011;2772;42.700;23.304;2024-03-17T06:15:38;37.50;;;18.60;;
5499;SDS011;2772;42.700;23.304;2024-03-17T06:18:06;39.53;;;18.97;;
5499;SDS011;2772;42.700;23.304;2024-03-17T06:20:35;32.20;;;18.50;;
5499;SDS011;2772;42.700;23.304;2024-03-17T06:23:07;38.00;;;18.37;;
5499;SDS011;2772;42.700;23.304;2024-03-17T06:25:38;33.17;;;17.80;;
5499;SDS011;2772;42.700;23.304;2024-03-17T06:28:05;32.90;;;18.27;;
5499;SDS011;2772;42.700;23.304;2024-03-17T06:30:32;35.53;;;17.60;;
5499;SDS011;2772;42.700;23.304;2024-03-17T06:33:01;31.60;;;17.00;;
5499;SDS011;2772;42.700;23.304;2024-03-17T06:35:27;28.87;;;17.23;;
5499;SDS011;2772;42.700;23.304;2024-03-17T06:37:58;32.87;;;18.23;;
5499;SDS011;2772;42.700;23.304;2024-03-17T06:40:26;30.13;;;16.50;;
5499;SDS011;2772;42.700;23.304;2024-03-17T06:42:54;31.97;;;16.07;;
5499;SDS011;2772;42.700;23.304;2024-03-17T06:45:21;31.00;;;15.83;;
5499;SDS011;2772;42.700;23.304;2024-03-17T06:47:48;29.60;;;15.70;;
5499;SDS011;2772;42.700;23.304;2024-03-17T06:50:15;30.53;;;16.70;;
5499;SDS011;2772;42.700;23.304;2024-03-17T06:52:41;28.07;;;14.13;;
5499;SDS011;2772;42.700;23.304;2024-03-17T06:55:08;43.27;;;16.37;;
5499;SDS011;2772;42.700;23.304;2024-03-17T06:57:36;24.60;;;15.10;;
5499;SDS011;2772;42.700;23.304;2024-03-17T07:00:05;27.13;;;15.80;;
5499;SDS011;2772;42.700;23.304;2024-03-17T07:02:39;24.67;;;15.10;;
5499;SDS011;2772;42.700;23.304;2024-03-17T07:05:06;25.63;;;13.77;;
5499;SDS011;2772;42.700;23.304;2024-03-17T07:07:33;26.53;;;14.23;;
5499;SDS011;2772;42.700;23.304;2024-03-17T07:10:03;26.50;;;14.90;;
5499;SDS011;2772;42.700;23.304;2024-03-17T07:12:30;27.50;;;15.23;;
5499;SDS011;2772;42.700;23.304;2024-03-17T07:14:57;27.10;;;14.60;;
5499;SDS011;2772;42.700;23.304;2024-03-17T07:17:25;28.77;;;15.27;;
5499;SDS011;2772;42.700;23.304;2024-03-17T07:19:51;27.20;;;14.40;;
5499;SDS011;2772;42.700;23.304;2024-03-17T07:22:18;22.50;;;13.80;;
5499;SDS011;2772;42.700;23.304;2024-03-17T07:24:45;26.90;;;14.40;;
5499;SDS011;2772;42.700;23.304;2024-03-17T07:27:12;30.63;;;13.53;;
5499;SDS011;2772;42.700;23.304;2024-03-17T07:29:39;17.90;;;11.50;;
5499;SDS011;2772;42.700;23.304;2024-03-17T07:32:06;22.13;;;13.00;;
5499;SDS011;2772;42.700;23.304;2024-03-17T07:34:34;25.00;;;13.27;;
5499;SDS011;2772;42.700;23.304;2024-03-17T07:37:01;24.60;;;13.73;;
5499;SDS011;2772;42.700;23.304;2024-03-17T07:39:28;28.93;;;14.10;;
5499;SDS011;2772;42.700;23.304;2024-03-17T07:41:57;18.00;;;12.03;;
5499;SDS011;2772;42.700;23.304;2024-03-17T07:44:23;24.43;;;11.73;;
5499;SDS011;2772;42.700;23.304;2024-03-17T07:46:54;20.13;;;11.97;;
5499;SDS011;2772;42.700;23.304;2024-03-17T07:49:20;22.17;;;10.70;;
5499;SDS011;2772;42.700;23.304;2024-03-17T07:51:48;19.40;;;10.30;;
5499;SDS011;2772;42.700;23.304;2024-03-17T07:54:15;15.17;;;10.30;;
5499;SDS011;2772;42.700;23.304;2024-03-17T07:56:44;15.63;;;10.67;;
5499;SDS011;2772;42.700;23.304;2024-03-17T07:59:11;24.83;;;10.93;;
5499;SDS011;2772;42.700;23.304;2024-03-17T08:01:42;14.17;;;9.67;;
5499;SDS011;2772;42.700;23.304;2024-03-17T08:04:08;17.77;;;9.80;;
5499;SDS011;2772;42.700;23.304;2024-03-17T08:06:37;14.70;;;9.00;;
5499;SDS011;2772;42.700;23.304;2024-03-17T08:09:05;17.73;;;10.17;;
5499;SDS011;2772;42.700;23.304;2024-03-17T08:11:33;15.70;;;9.97;;
5499;SDS011;2772;42.700;23.304;2024-03-17T08:13:59;13.00;;;9.17;;
5499;SDS011;2772;42.700;23.304;2024-03-17T08:16:27;13.33;;;8.20;;
5499;SDS011;2772;42.700;23.304;2024-03-17T08:18:56;14.40;;;9.10;;
5499;SDS011;2772;42.700;23.304;2024-03-17T08:21:23;16.83;;;9.40;;
5499;SDS011;2772;42.700;23.304;2024-03-17T08:23:52;13.50;;;9.23;;
5499;SDS011;2772;42.700;23.304;2024-03-17T08:26:20;14.87;;;9.90;;
5499;SDS011;2772;42.700;23.304;2024-03-17T08:28:49;15.40;;;9.30;;
5499;SDS011;2772;42.700;23.304;2024-03-17T08:31:16;22.10;;;10.43;;
5499;SDS011;2772;42.700;23.304;2024-03-17T08:33:42;15.20;;;10.00;;
5499;SDS011;2772;42.700;23.304;2024-03-17T08:36:09;19.67;;;11.10;;
5499;SDS011;2772;42.700;23.304;2024-03-17T08:38:36;17.67;;;8.80;;
5499;SDS011;2772;42.700;23.304;2024-03-17T08:41:04;15.85;;;11.20;;
5499;SDS011;2772;42.700;23.304;2024-03-17T08:43:32;26.90;;;11.07;;
5499;SDS011;2772;42.700;23.304;2024-03-17T08:45:59;15.70;;;10.23;;
5499;SDS011;2772;42.700;23.304;2024-03-17T08:48:29;21.10;;;9.97;;
5499;SDS011;2772;42.700;23.304;2024-03-17T08:50:56;15.80;;;10.27;;
5499;SDS011;2772;42.700;23.304;2024-03-17T08:53:24;30.00;;;9.50;;
5499;SDS011;2772;42.700;23.304;2024-03-17T08:55:51;16.93;;;9.47;;
5499;SDS011;2772;42.700;23.304;2024-03-17T08:58:18;20.10;;;10.93;;
5499;SDS011;2772;42.700;23.304;2024-03-17T09:00:47;20.07;;;11.50;;
5499;SDS011;2772;42.700;23.304;2024-03-17T09:03:14;16.60;;;10.13;;
5499;SDS011;2772;42.700;23.304;2024-03-17T09:05:41;18.07;;;10.63;;
5499;SDS011;2772;42.700;23.304;2024-03-17T09:08:14;24.73;;;11.33;;
5499;SDS011;2772;42.700;23.304;2024-03-17T09:10:42;19.27;;;11.37;;
5499;SDS011;2772;42.700;23.304;2024-03-17T09:13:10;23.63;;;12.00;;
5499;SDS011;2772;42.700;23.304;2024-03-17T09:15:40;19.97;;;11.90;;
5499;SDS011;2772;42.700;23.304;2024-03-17T09:18:08;22.47;;;11.73;;
5499;SDS011;2772;42.700;23.304;2024-03-17T09:20:34;39.27;;;13.20;;
5499;SDS011;2772;42.700;23.304;2024-03-17T09:23:01;17.17;;;11.80;;
5499;SDS011;2772;42.700;23.304;2024-03-17T09:25:28;25.20;;;12.50;;
5499;SDS011;2772;42.700;23.304;2024-03-17T09:27:55;20.73;;;11.90;;
5499;SDS011;2772;42.700;23.304;2024-03-17T09:30:22;19.10;;;12.53;;
5499;SDS011;2772;42.700;23.304;2024-03-17T09:32:48;25.07;;;10.80;;
5499;SDS011;2772;42.700;23.304;2024-03-17T09:35:16;41.27;;;10.07;;
5499;SDS011;2772;42.700;23.304;2024-03-17T09:37:43;22.17;;;8.50;;
5499;SDS011;2772;42.700;23.304;2024-03-17T09:40:13;12.83;;;9.30;;
5499;SDS011;2772;42.700;23.304;2024-03-17T09:42:41;19.23;;;9.00;;
5499;SDS011;2772;42.700;23.304;2024-03-17T09:45:08;14.97;;;8.43;;
5499;SDS011;2772;42.700;23.304;2024-03-17T09:47:36;12.93;;;8.83;;
5499;SDS011;2772;42.700;23.304;2024-03-17T09:50:03;13.10;;;9.27;;
5499;SDS011;2772;42.700;23.304;2024-03-17T09:52:32;20.80;;;12.00;;
5499;SDS011;2772;42.700;23.304;2024-03-17T09:55:01;12.93;;;8.27;;
5499;SDS011;2772;42.700;23.304;2024-03-17T09:57:36;11.33;;;8.20;;
5499;SDS011;2772;42.700;23.304;2024-03-17T10:00:04;27.03;;;8.20;;
5499;SDS011;2772;42.700;23.304;2024-03-17T10:02:41;16.50;;;8.30;;
5499;SDS011;2772;42.700;23.304;2024-03-17T10:05:17;5.30;;;4.83;;
5499;SDS011;2772;42.700;23.304;2024-03-17T10:07:46;17.87;;;6.77;;
5499;SDS011;2772;42.700;23.304;2024-03-17T10:10:13;14.27;;;8.53;;
5499;SDS011;2772;42.700;23.304;2024-03-17T10:12:41;9.87;;;5.77;;
5499;SDS011;2772;42.700;23.304;2024-03-17T10:15:10;7.80;;;6.87;;
5499;SDS011;2772;42.700;23.304;2024-03-17T10:17:38;9.77;;;7.10;;
5499;SDS011;2772;42.700;23.304;2024-03-17T10:20:11;18.60;;;6.67;;
5499;SDS011;2772;42.700;23.304;2024-03-17T10:22:41;13.10;;;6.17;;
5499;SDS011;2772;42.700;23.304;2024-03-17T10:25:23;8.63;;;5.20;;
5499;SDS011;2772;42.700;23.304;2024-03-17T10:27:50;4.60;;;4.20;;
5499;SDS011;2772;42.700;23.304;2024-03-17T10:30:18;5.77;;;5.27;;
5499;SDS011;2772;42.700;23.304;2024-03-17T10:32:48;12.17;;;5.53;;
5499;SDS011;2772;42.700;23.304;2024-03-17T10:35:25;6.17;;;4.50;;
5499;SDS011;2772;42.700;23.304;2024-03-17T10:37:55;4.23;;;3.67;;
5499;SDS011;2772;42.700;23.304;2024-03-17T10:40:23;16.40;;;6.20;;
5499;SDS011;2772;42.700;23.304;2024-03-17T10:42:50;7.73;;;5.20;;
5499;SDS011;2772;42.700;23.304;2024-03-17T10:45:17;11.80;;;5.10;;
5499;SDS011;2772;42.700;23.304;2024-03-17T10:47:46;11.30;;;6.30;;
5499;SDS011;2772;42.700;23.304;2024-03-17T10:50:16;4.30;;;3.90;;
5499;SDS011;2772;42.700;23.304;2024-03-17T10:52:44;6.60;;;3.90;;
5499;SDS011;2772;42.700;23.304;2024-03-17T10:55:20;6.00;;;3.77;;
5499;SDS011;2772;42.700;23.304;2024-03-17T10:57:49;5.03;;;4.53;;
5499;SDS011;2772;42.700;23.304;2024-03-17T11:00:16;8.90;;;4.90;;
5499;SDS011;2772;42.700;23.304;2024-03-17T11:02:47;12.00;;;5.83;;
5499;SDS011;2772;42.700;23.304;2024-03-17T11:05:16;6.23;;;5.13;;
5499;SDS011;2772;42.700;23.304;2024-03-17T11:07:46;17.57;;;6.67;;
5499;SDS011;2772;42.700;23.304;2024-03-17T11:10:15;8.80;;;5.80;;
5499;SDS011;2772;42.700;23.304;2024-03-17T11:12:46;8.23;;;6.20;;
5499;SDS011;2772;42.700;23.304;2024-03-17T11:15:34;8.97;;;6.13;;
5499;SDS011;2772;42.700;23.304;2024-03-17T11:21:01;8.07;;;5.67;;
5499;SDS011;2772;42.700;23.304;2024-03-17T11:23:33;10.70;;;5.87;;
5499;SDS011;2772;42.700;23.304;2024-03-17T11:26:03;10.63;;;5.50;;
5499;SDS011;2772;42.700;23.304;2024-03-17T11:28:46;16.50;;;5.07;;
5499;SDS011;2772;42.700;23.304;2024-03-17T11:36:54;6.10;;;4.80;;
5499;SDS011;2772;42.700;23.304;2024-03-17T11:39:21;5.10;;;4.50;;
5499;SDS011;2772;42.700;23.304;2024-03-17T11:42:20;5.97;;;4.13;;
5499;SDS011;2772;42.700;23.304;2024-03-17T11:44:59;10.33;;;4.80;;
5499;SDS011;2772;42.700;23.304;2024-03-17T11:47:35;4.80;;;4.30;;
5499;SDS011;2772;42.700;23.304;2024-03-17T11:50:04;4.70;;;4.03;;
5499;SDS011;2772;42.700;23.304;2024-03-17T11:52:33;9.13;;;4.63;;
5499;SDS011;2772;42.700;23.304;2024-03-17T11:55:00;5.03;;;4.40;;
5499;SDS011;2772;42.700;23.304;2024-03-17T11:57:26;11.93;;;5.30;;
5499;SDS011;2772;42.700;23.304;2024-03-17T11:59:54;5.83;;;5.20;;
5499;SDS011;2772;42.700;23.304;2024-03-17T12:02:22;4.97;;;4.47;;
5499;SDS011;2772;42.700;23.304;2024-03-17T12:04:51;17.50;;;10.43;;
5499;SDS011;2772;42.700;23.304;2024-03-17T12:07:18;6.73;;;5.00;;
5499;SDS011;2772;42.700;23.304;2024-03-17T12:09:45;12.33;;;5.17;;
5499;SDS011;2772;42.700;23.304;2024-03-17T12:12:14;7.13;;;4.10;;
5499;SDS011;2772;42.700;23.304;2024-03-17T12:14:44;15.50;;;5.37;;
5499;SDS011;2772;42.700;23.304;2024-03-17T12:17:11;10.73;;;5.57;;
5499;SDS011;2772;42.700;23.304;2024-03-17T12:19:40;4.83;;;4.33;;
5499;SDS011;2772;42.700;23.304;2024-03-17T12:22:09;12.30;;;4.47;;
5499;SDS011;2772;42.700;23.304;2024-03-17T12:24:43;12.80;;;5.80;;
5499;SDS011;2772;42.700;23.304;2024-03-17T12:27:09;7.33;;;4.80;;
5499;SDS011;2772;42.700;23.304;2024-03-17T12:29:43;6.70;;;5.23;;
5499;SDS011;2772;42.700;23.304;2024-03-17T12:32:11;26.23;;;7.17;;
5499;SDS011;2772;42.700;23.304;2024-03-17T12:34:42;5.53;;;4.60;;
5499;SDS011;2772;42.700;23.304;2024-03-17T12:37:11;24.43;;;5.70;;
5499;SDS011;2772;42.700;23.304;2024-03-17T12:39:41;6.87;;;5.77;;
5499;SDS011;2772;42.700;23.304;2024-03-17T12:42:08;7.90;;;5.67;;
5499;SDS011;2772;42.700;23.304;2024-03-17T12:44:35;16.97;;;7.90;;
5499;SDS011;2772;42.700;23.304;2024-03-17T12:47:07;8.50;;;6.78;;
5499;SDS011;2772;42.700;23.304;2024-03-17T12:49:34;8.30;;;6.20;;
5499;SDS011;2772;42.700;23.304;2024-03-17T12:52:02;7.70;;;6.07;;
5499;SDS011;2772;42.700;23.304;2024-03-17T12:54:28;6.50;;;5.60;;
5499;SDS011;2772;42.700;23.304;2024-03-17T12:57:05;11.10;;;6.30;;
5499;SDS011;2772;42.700;23.304;2024-03-17T12:59:50;18.40;;;6.33;;
5499;SDS011;2772;42.700;23.304;2024-03-17T13:02:34;8.97;;;6.37;;
5499;SDS011;2772;42.700;23.304;2024-03-17T13:05:14;7.30;;;6.30;;
5499;SDS011;2772;42.700;23.304;2024-03-17T13:07:43;9.77;;;6.00;;
5499;SDS011;2772;42.700;23.304;2024-03-17T13:10:15;5.90;;;5.30;;
5499;SDS011;2772;42.700;23.304;2024-03-17T13:12:43;10.93;;;6.47;;
5499;SDS011;2772;42.700;23.304;2024-03-17T13:15:10;8.90;;;6.60;;
5499;SDS011;2772;42.700;23.304;2024-03-17T13:17:39;11.50;;;7.67;;
5499;SDS011;2772;42.700;23.304;2024-03-17T13:20:06;10.30;;;6.73;;
5499;SDS011;2772;42.700;23.304;2024-03-17T13:22:36;10.37;;;7.33;;
5499;SDS011;2772;42.700;23.304;2024-03-17T13:25:07;17.30;;;8.00;;
5499;SDS011;2772;42.700;23.304;2024-03-17T13:27:35;9.07;;;7.40;;
5499;SDS011;2772;42.700;23.304;2024-03-17T13:30:02;9.30;;;7.30;;
5499;SDS011;2772;42.700;23.304;2024-03-17T13:32:30;9.83;;;7.10;;
5499;SDS011;2772;42.700;23.304;2024-03-17T13:34:56;9.23;;;7.07;;
5499;SDS011;2772;42.700;23.304;2024-03-17T13:37:23;8.40;;;7.20;;
5499;SDS011;2772;42.700;23.304;2024-03-17T13:39:50;13.80;;;7.30;;
5499;SDS011;2772;42.700;23.304;2024-03-17T13:42:18;8.10;;;6.90;;
5499;SDS011;2772;42.700;23.304;2024-03-17T13:44:45;13.30;;;7.33;;
5499;SDS011;2772;42.700;23.304;2024-03-17T13:47:12;10.03;;;7.27;;
5499;SDS011;2772;42.700;23.304;2024-03-17T13:49:40;12.63;;;8.20;;
5499;SDS011;2772;42.700;23.304;2024-03-17T13:52:07;72.17;;;11.60;;
5499;SDS011;2772;42.700;23.304;2024-03-17T13:54:34;15.10;;;9.10;;
5499;SDS011;2772;42.700;23.304;2024-03-17T13:57:00;12.10;;;8.33;;
5499;SDS011;2772;42.700;23.304;2024-03-17T13:59:29;18.40;;;8.10;;
5499;SDS011;2772;42.700;23.304;2024-03-17T14:01:55;14.63;;;8.87;;
5499;SDS011;2772;42.700;23.304;2024-03-17T14:04:22;17.87;;;7.60;;
5499;SDS011;2772;42.700;23.304;2024-03-17T14:06:48;23.13;;;8.03;;
5499;SDS011;2772;42.700;23.304;2024-03-17T14:09:15;9.10;;;6.90;;
5499;SDS011;2772;42.700;23.304;2024-03-17T14:11:44;10.00;;;7.80;;
5499;SDS011;2772;42.700;23.304;2024-03-17T14:14:11;11.03;;;7.10;;
5499;SDS011;2772;42.700;23.304;2024-03-17T14:16:39;11.57;;;8.20;;
5499;SDS011;2772;42.700;23.304;2024-03-17T14:19:07;11.77;;;8.33;;
5499;SDS011;2772;42.700;23.304;2024-03-17T14:21:34;9.67;;;7.23;;
5499;SDS011;2772;42.700;23.304;2024-03-17T14:24:01;8.43;;;6.80;;
5499;SDS011;2772;42.700;23.304;2024-03-17T14:26:32;12.50;;;7.70;;
5499;SDS011;2772;42.700;23.304;2024-03-17T14:28:59;11.40;;;8.50;;
5499;SDS011;2772;42.700;23.304;2024-03-17T14:31:26;11.80;;;7.90;;
5499;SDS011;2772;42.700;23.304;2024-03-17T14:33:58;15.80;;;9.37;;
5499;SDS011;2772;42.700;23.304;2024-03-17T14:36:24;11.93;;;7.00;;
5499;SDS011;2772;42.700;23.304;2024-03-17T14:38:53;10.53;;;7.50;;
5499;SDS011;2772;42.700;23.304;2024-03-17T14:41:20;12.63;;;8.93;;
5499;SDS011;2772;42.700;23.304;2024-03-17T14:43:47;19.23;;;7.93;;
5499;SDS011;2772;42.700;23.304;2024-03-17T14:46:13;11.90;;;7.90;;
5499;SDS011;2772;42.700;23.304;2024-03-17T14:48:42;13.23;;;8.17;;
5499;SDS011;2772;42.700;23.304;2024-03-17T14:51:10;10.70;;;7.60;;
5499;SDS011;2772;42.700;23.304;2024-03-17T14:53:37;10.00;;;7.80;;
5499;SDS011;2772;42.700;23.304;2024-03-17T14:56:13;9.40;;;7.10;;